sensor_id;sensor_type;location;lat;lon;timestamp;temperature;humidity
18335;DHT22;9293;49.524;10.964;2024-01-07T00:01:53;4.20;99.90
18335;DHT22;9293;49.524;10.964;2024-01-07T00:04:22;4.20;99.90
18335;DHT22;9293;49.524;10.964;2024-01-07T00:06:50;4.20;99.90
18335;DHT22;9293;49.524;10.964;2024-01-07T00:09:18;4.20;99.90
18335;DHT22;9293;49.524;10.964;2024-01-07T00:11:47;4.20;99.90
18335;DHT22;9293;49.524;10.964;2024-01-07T00:14:16;4.20;99.90
18335;DHT22;9293;49.524;10.964;2024-01-07T00:16:45;4.20;99.90
18335;DHT22;9293;49.524;10.964;2024-01-07T00:19:13;4.20;99.90
18335;DHT22;9293;49.524;10.964;2024-01-07T00:21:42;4.20;99.90
18335;DHT22;9293;49.524;10.964;2024-01-07T00:24:10;4.20;99.90
18335;DHT22;9293;49.524;10.964;2024-01-07T00:26:39;4.20;99.90
18335;DHT22;9293;49.524;10.964;2024-01-07T00:29:07;4.10;99.90
18335;DHT22;9293;49.524;10.964;2024-01-07T00:31:35;4.10;99.90
18335;DHT22;9293;49.524;10.964;2024-01-07T00:34:04;4.10;99.90
18335;DHT22;9293;49.524;10.964;2024-01-07T00:36:32;4.20;99.90
18335;DHT22;9293;49.524;10.964;2024-01-07T00:39:01;4.10;99.90
18335;DHT22;9293;49.524;10.964;2024-01-07T00:41:29;4.10;99.90
18335;DHT22;9293;49.524;10.964;2024-01-07T00:44:00;4.10;99.90
18335;DHT22;9293;49.524;10.964;2024-01-07T00:46:29;4.20;99.90
18335;DHT22;9293;49.524;10.964;2024-01-07T00:48:58;4.20;99.90
18335;DHT22;9293;49.524;10.964;2024-01-07T00:51:26;4.10;99.90
18335;DHT22;9293;49.524;10.964;2024-01-07T00:53:55;4.10;99.90
18335;DHT22;9293;49.524;10.964;2024-01-07T00:56:26;4.10;99.90
18335;DHT22;9293;49.524;10.964;2024-01-07T00:58:54;4.10;99.90
18335;DHT22;9293;49.524;10.964;2024-01-07T01:01:26;4.10;99.90
18335;DHT22;9293;49.524;10.964;2024-01-07T01:03:54;4.10;99.90
18335;DHT22;9293;49.524;10.964;2024-01-07T01:06:26;4.20;99.90
18335;DHT22;9293;49.524;10.964;2024-01-07T01:08:55;4.20;99.90
18335;DHT22;9293;49.524;10.964;2024-01-07T01:11:23;4.20;99.90
18335;DHT22;9293;49.524;10.964;2024-01-07T01:13:59;4.20;99.90
18335;DHT22;9293;49.524;10.964;2024-01-07T01:16:28;4.20;99.90
18335;DHT22;9293;49.524;10.964;2024-01-07T01:18:56;4.20;99.90
18335;DHT22;9293;49.524;10.964;2024-01-07T01:21:25;4.10;99.90
18335;DHT22;9293;49.524;10.964;2024-01-07T01:23:54;4.10;99.90
18335;DHT22;9293;49.524;10.964;2024-01-07T01:26:22;4.20;99.90
18335;DHT22;9293;49.524;10.964;2024-01-07T01:28:52;4.10;99.90
18335;DHT22;9293;49.524;10.964;2024-01-07T01:31:21;4.10;99.90
18335;DHT22;9293;49.524;10.964;2024-01-07T01:33:49;4.10;99.90
18335;DHT22;9293;49.524;10.964;2024-01-07T01:36:18;4.20;99.90
18335;DHT22;9293;49.524;10.964;2024-01-07T01:38:47;4.10;99.90
18335;DHT22;9293;49.524;10.964;2024-01-07T01:41:16;4.20;99.90
18335;DHT22;9293;49.524;10.964;2024-01-07T01:43:45;4.10;99.90
18335;DHT22;9293;49.524;10.964;2024-01-07T01:46:13;4.20;99.90
18335;DHT22;9293;49.524;10.964;2024-01-07T01:48:43;4.20;99.90
18335;DHT22;9293;49.524;10.964;2024-01-07T01:51:12;4.10;99.90
18335;DHT22;9293;49.524;10.964;2024-01-07T01:53:40;4.10;99.90
18335;DHT22;9293;49.524;10.964;2024-01-07T01:56:09;4.10;99.90
18335;DHT22;9293;49.524;10.964;2024-01-07T01:58:37;4.10;99.90
18335;DHT22;9293;49.524;10.964;2024-01-07T02:01:06;4.10;99.90
18335;DHT22;9293;49.524;10.964;2024-01-07T02:03:34;4.10;99.90
18335;DHT22;9293;49.524;10.964;2024-01-07T02:06:03;4.20;99.90
18335;DHT22;9293;49.524;10.964;2024-01-07T02:08:32;4.20;99.90
18335;DHT22;9293;49.524;10.964;2024-01-07T02:11:18;4.10;99.90
18335;DHT22;9293;49.524;10.964;2024-01-07T02:13:47;4.10;99.90
18335;DHT22;9293;49.524;10.964;2024-01-07T02:16:21;4.10;99.90
18335;DHT22;9293;49.524;10.964;2024-01-07T02:18:53;4.20;99.90
18335;DHT22;9293;49.524;10.964;2024-01-07T02:21:21;4.20;99.90
18335;DHT22;9293;49.524;10.964;2024-01-07T02:23:50;4.20;99.90
18335;DHT22;9293;49.524;10.964;2024-01-07T02:26:18;4.20;99.90
18335;DHT22;9293;49.524;10.964;2024-01-07T02:28:46;4.20;99.90
18335;DHT22;9293;49.524;10.964;2024-01-07T02:31:15;4.20;99.90
18335;DHT22;9293;49.524;10.964;2024-01-07T02:33:43;4.10;99.90
18335;DHT22;9293;49.524;10.964;2024-01-07T02:36:12;4.10;99.90
18335;DHT22;9293;49.524;10.964;2024-01-07T02:38:40;4.10;99.90
18335;DHT22;9293;49.524;10.964;2024-01-07T02:41:08;4.10;99.90
18335;DHT22;9293;49.524;10.964;2024-01-07T02:43:37;4.10;99.90
18335;DHT22;9293;49.524;10.964;2024-01-07T02:46:07;4.10;99.90
18335;DHT22;9293;49.524;10.964;2024-01-07T02:48:36;4.10;99.90
18335;DHT22;9293;49.524;10.964;2024-01-07T02:51:05;4.10;99.90
18335;DHT22;9293;49.524;10.964;2024-01-07T02:53:34;4.10;99.90
18335;DHT22;9293;49.524;10.964;2024-01-07T02:56:03;4.10;99.90
18335;DHT22;9293;49.524;10.964;2024-01-07T02:58:31;4.10;99.90
18335;DHT22;9293;49.524;10.964;2024-01-07T03:01:00;4.10;99.90
18335;DHT22;9293;49.524;10.964;2024-01-07T03:03:28;4.10;99.90
18335;DHT22;9293;49.524;10.964;2024-01-07T03:05:57;4.00;99.90
18335;DHT22;9293;49.524;10.964;2024-01-07T03:08:25;4.10;99.90
18335;DHT22;9293;49.524;10.964;2024-01-07T03:10:54;4.10;99.90
18335;DHT22;9293;49.524;10.964;2024-01-07T03:13:22;4.00;99.90
18335;DHT22;9293;49.524;10.964;2024-01-07T03:15:50;4.00;99.90
18335;DHT22;9293;49.524;10.964;2024-01-07T03:18:19;4.00;99.90
18335;DHT22;9293;49.524;10.964;2024-01-07T03:20:47;4.00;99.90
18335;DHT22;9293;49.524;10.964;2024-01-07T03:23:16;4.00;99.90
18335;DHT22;9293;49.524;10.964;2024-01-07T03:25:46;4.00;99.90
18335;DHT22;9293;49.524;10.964;2024-01-07T03:28:15;3.90;99.90
18335;DHT22;9293;49.524;10.964;2024-01-07T03:30:43;3.90;99.90
18335;DHT22;9293;49.524;10.964;2024-01-07T03:33:12;3.90;99.90
18335;DHT22;9293;49.524;10.964;2024-01-07T03:35:40;3.90;99.90
18335;DHT22;9293;49.524;10.964;2024-01-07T03:38:09;3.90;99.90
18335;DHT22;9293;49.524;10.964;2024-01-07T03:40:37;3.90;99.90
18335;DHT22;9293;49.524;10.964;2024-01-07T03:43:05;3.90;99.90
18335;DHT22;9293;49.524;10.964;2024-01-07T03:45:34;3.90;99.90
18335;DHT22;9293;49.524;10.964;2024-01-07T03:48:04;3.90;99.90
18335;DHT22;9293;49.524;10.964;2024-01-07T03:50:32;3.90;99.90
18335;DHT22;9293;49.524;10.964;2024-01-07T03:53:01;3.90;99.90
18335;DHT22;9293;49.524;10.964;2024-01-07T03:55:29;3.90;99.90
18335;DHT22;9293;49.524;10.964;2024-01-07T03:58:00;3.90;99.90
18335;DHT22;9293;49.524;10.964;2024-01-07T04:00:32;3.80;99.90
18335;DHT22;9293;49.524;10.964;2024-01-07T04:03:01;3.90;99.90
18335;DHT22;9293;49.524;10.964;2024-01-07T04:05:30;3.80;99.90
18335;DHT22;9293;49.524;10.964;2024-01-07T04:08:02;3.80;99.90
18335;DHT22;9293;49.524;10.964;2024-01-07T04:10:30;3.80;99.90
18335;DHT22;9293;49.524;10.964;2024-01-07T04:12:59;3.90;99.90
18335;DHT22;9293;49.524;10.964;2024-01-07T04:15:27;3.80;99.90
18335;DHT22;9293;49.524;10.964;2024-01-07T04:17:56;3.80;99.90
18335;DHT22;9293;49.524;10.964;2024-01-07T04:20:24;3.80;99.90
18335;DHT22;9293;49.524;10.964;2024-01-07T04:22:53;3.80;99.90
18335;DHT22;9293;49.524;10.964;2024-01-07T04:25:21;3.70;99.90
18335;DHT22;9293;49.524;10.964;2024-01-07T04:27:49;3.60;99.90
18335;DHT22;9293;49.524;10.964;2024-01-07T04:30:18;3.50;99.90
18335;DHT22;9293;49.524;10.964;2024-01-07T04:32:47;3.60;99.90
18335;DHT22;9293;49.524;10.964;2024-01-07T04:35:15;3.50;99.90
18335;DHT22;9293;49.524;10.964;2024-01-07T04:37:43;3.50;99.90
18335;DHT22;9293;49.524;10.964;2024-01-07T04:40:12;3.50;99.90
18335;DHT22;9293;49.524;10.964;2024-01-07T04:42:40;3.50;99.90
18335;DHT22;9293;49.524;10.964;2024-01-07T04:45:09;3.50;99.90
18335;DHT22;9293;49.524;10.964;2024-01-07T04:47:37;3.40;99.90
18335;DHT22;9293;49.524;10.964;2024-01-07T04:50:06;3.40;99.90
18335;DHT22;9293;49.524;10.964;2024-01-07T04:52:34;3.40;99.90
18335;DHT22;9293;49.524;10.964;2024-01-07T04:55:03;3.40;99.90
18335;DHT22;9293;49.524;10.964;2024-01-07T04:57:31;3.30;99.90
18335;DHT22;9293;49.524;10.964;2024-01-07T05:00:01;3.30;99.90
18335;DHT22;9293;49.524;10.964;2024-01-07T05:02:30;3.30;99.90
18335;DHT22;9293;49.524;10.964;2024-01-07T05:04:58;3.30;99.90
18335;DHT22;9293;49.524;10.964;2024-01-07T05:07:27;3.20;99.90
18335;DHT22;9293;49.524;10.964;2024-01-07T05:09:55;3.20;99.90
18335;DHT22;9293;49.524;10.964;2024-01-07T05:12:23;3.20;99.90
18335;DHT22;9293;49.524;10.964;2024-01-07T05:14:53;3.20;99.90
18335;DHT22;9293;49.524;10.964;2024-01-07T05:17:22;3.10;99.90
18335;DHT22;9293;49.524;10.964;2024-01-07T05:19:50;3.10;99.90
18335;DHT22;9293;49.524;10.964;2024-01-07T05:22:18;3.10;99.90
18335;DHT22;9293;49.524;10.964;2024-01-07T05:24:47;3.00;99.90
18335;DHT22;9293;49.524;10.964;2024-01-07T05:27:15;3.00;99.90
18335;DHT22;9293;49.524;10.964;2024-01-07T05:29:47;2.90;99.90
18335;DHT22;9293;49.524;10.964;2024-01-07T05:32:18;2.80;99.90
18335;DHT22;9293;49.524;10.964;2024-01-07T05:34:49;2.80;99.90
18335;DHT22;9293;49.524;10.964;2024-01-07T05:37:18;2.70;99.90
18335;DHT22;9293;49.524;10.964;2024-01-07T05:39:47;2.70;99.90
18335;DHT22;9293;49.524;10.964;2024-01-07T05:42:15;2.70;99.90
18335;DHT22;9293;49.524;10.964;2024-01-07T05:44:43;2.70;99.90
18335;DHT22;9293;49.524;10.964;2024-01-07T05:47:12;2.70;99.90
18335;DHT22;9293;49.524;10.964;2024-01-07T05:49:40;2.70;99.90
18335;DHT22;9293;49.524;10.964;2024-01-07T05:52:09;2.70;99.90
18335;DHT22;9293;49.524;10.964;2024-01-07T05:54:37;2.70;99.90
18335;DHT22;9293;49.524;10.964;2024-01-07T05:57:05;2.70;99.90
18335;DHT22;9293;49.524;10.964;2024-01-07T05:59:34;2.70;99.90
18335;DHT22;9293;49.524;10.964;2024-01-07T06:02:02;2.70;99.90
18335;DHT22;9293;49.524;10.964;2024-01-07T06:04:31;2.70;99.90
18335;DHT22;9293;49.524;10.964;2024-01-07T06:06:59;2.70;99.90
18335;DHT22;9293;49.524;10.964;2024-01-07T06:09:28;2.70;99.90
18335;DHT22;9293;49.524;10.964;2024-01-07T06:11:56;2.70;99.90
18335;DHT22;9293;49.524;10.964;2024-01-07T06:14:24;2.70;99.90
18335;DHT22;9293;49.524;10.964;2024-01-07T06:16:53;2.70;99.90
18335;DHT22;9293;49.524;10.964;2024-01-07T06:19:21;2.60;99.90
18335;DHT22;9293;49.524;10.964;2024-01-07T06:21:49;2.60;99.90
18335;DHT22;9293;49.524;10.964;2024-01-07T06:24:18;2.60;99.90
18335;DHT22;9293;49.524;10.964;2024-01-07T06:26:46;2.70;99.90
18335;DHT22;9293;49.524;10.964;2024-01-07T06:29:14;2.60;99.90
18335;DHT22;9293;49.524;10.964;2024-01-07T06:31:46;2.60;99.90
18335;DHT22;9293;49.524;10.964;2024-01-07T06:34:14;2.50;99.90
18335;DHT22;9293;49.524;10.964;2024-01-07T06:36:44;2.50;99.90
18335;DHT22;9293;49.524;10.964;2024-01-07T06:39:12;2.60;99.90
18335;DHT22;9293;49.524;10.964;2024-01-07T06:41:41;2.60;99.90
18335;DHT22;9293;49.524;10.964;2024-01-07T06:44:09;2.60;99.90
18335;DHT22;9293;49.524;10.964;2024-01-07T06:46:37;2.60;99.90
18335;DHT22;9293;49.524;10.964;2024-01-07T06:49:06;2.60;99.90
18335;DHT22;9293;49.524;10.964;2024-01-07T06:51:35;2.60;99.90
18335;DHT22;9293;49.524;10.964;2024-01-07T06:54:04;2.50;99.90
18335;DHT22;9293;49.524;10.964;2024-01-07T06:56:32;2.50;99.90
18335;DHT22;9293;49.524;10.964;2024-01-07T06:59:00;2.50;99.90
18335;DHT22;9293;49.524;10.964;2024-01-07T07:01:29;2.50;99.90
18335;DHT22;9293;49.524;10.964;2024-01-07T07:03:57;2.40;99.90
18335;DHT22;9293;49.524;10.964;2024-01-07T07:06:25;2.50;99.90
18335;DHT22;9293;49.524;10.964;2024-01-07T07:08:54;2.50;99.90
18335;DHT22;9293;49.524;10.964;2024-01-07T07:11:22;2.50;99.90
18335;DHT22;9293;49.524;10.964;2024-01-07T07:13:50;2.40;99.90
18335;DHT22;9293;49.524;10.964;2024-01-07T07:16:19;2.50;99.90
18335;DHT22;9293;49.524;10.964;2024-01-07T07:18:47;2.50;99.90
18335;DHT22;9293;49.524;10.964;2024-01-07T07:21:15;2.40;99.90
18335;DHT22;9293;49.524;10.964;2024-01-07T07:23:47;2.40;99.90
18335;DHT22;9293;49.524;10.964;2024-01-07T07:26:18;2.30;99.90
18335;DHT22;9293;49.524;10.964;2024-01-07T07:28:49;2.30;99.90
18335;DHT22;9293;49.524;10.964;2024-01-07T07:31:17;2.30;99.90
18335;DHT22;9293;49.524;10.964;2024-01-07T07:33:45;2.30;99.90
18335;DHT22;9293;49.524;10.964;2024-01-07T07:36:15;2.30;99.90
18335;DHT22;9293;49.524;10.964;2024-01-07T07:38:43;2.30;99.90
18335;DHT22;9293;49.524;10.964;2024-01-07T07:41:11;2.30;99.90
18335;DHT22;9293;49.524;10.964;2024-01-07T07:43:40;2.30;99.90
18335;DHT22;9293;49.524;10.964;2024-01-07T07:46:08;2.30;99.90
18335;DHT22;9293;49.524;10.964;2024-01-07T07:48:36;2.30;99.90
18335;DHT22;9293;49.524;10.964;2024-01-07T07:51:05;2.30;99.90
18335;DHT22;9293;49.524;10.964;2024-01-07T07:53:33;2.30;99.90
18335;DHT22;9293;49.524;10.964;2024-01-07T07:56:02;2.30;99.90
18335;DHT22;9293;49.524;10.964;2024-01-07T07:58:30;2.30;99.90
18335;DHT22;9293;49.524;10.964;2024-01-07T08:00:58;2.20;99.90
18335;DHT22;9293;49.524;10.964;2024-01-07T08:03:27;2.30;99.90
18335;DHT22;9293;49.524;10.964;2024-01-07T08:05:55;2.30;99.90
18335;DHT22;9293;49.524;10.964;2024-01-07T08:08:24;2.30;99.90
18335;DHT22;9293;49.524;10.964;2024-01-07T08:10:52;2.30;99.90
18335;DHT22;9293;49.524;10.964;2024-01-07T08:13:20;2.30;99.90
18335;DHT22;9293;49.524;10.964;2024-01-07T08:15:49;2.30;99.90
18335;DHT22;9293;49.524;10.964;2024-01-07T08:18:17;2.30;99.90
18335;DHT22;9293;49.524;10.964;2024-01-07T08:20:46;2.30;99.90
18335;DHT22;9293;49.524;10.964;2024-01-07T08:23:15;2.30;99.90
18335;DHT22;9293;49.524;10.964;2024-01-07T08:25:44;2.20;99.90
18335;DHT22;9293;49.524;10.964;2024-01-07T08:28:13;2.20;99.90
18335;DHT22;9293;49.524;10.964;2024-01-07T08:30:42;2.20;99.90
18335;DHT22;9293;49.524;10.964;2024-01-07T08:33:10;2.30;99.90
18335;DHT22;9293;49.524;10.964;2024-01-07T08:35:39;2.30;99.90
18335;DHT22;9293;49.524;10.964;2024-01-07T08:38:07;2.20;99.90
18335;DHT22;9293;49.524;10.964;2024-01-07T08:40:36;2.30;99.90
18335;DHT22;9293;49.524;10.964;2024-01-07T08:43:04;2.20;99.90
18335;DHT22;9293;49.524;10.964;2024-01-07T08:45:32;2.10;99.90
18335;DHT22;9293;49.524;10.964;2024-01-07T08:48:01;2.00;99.90
18335;DHT22;9293;49.524;10.964;2024-01-07T08:50:29;2.00;99.90
18335;DHT22;9293;49.524;10.964;2024-01-07T08:52:58;2.00;99.90
18335;DHT22;9293;49.524;10.964;2024-01-07T08:55:31;1.90;99.90
18335;DHT22;9293;49.524;10.964;2024-01-07T08:57:59;2.00;99.90
18335;DHT22;9293;49.524;10.964;2024-01-07T09:00:28;1.90;99.90
18335;DHT22;9293;49.524;10.964;2024-01-07T09:03:07;1.90;99.90
18335;DHT22;9293;49.524;10.964;2024-01-07T09:05:36;1.80;99.90
18335;DHT22;9293;49.524;10.964;2024-01-07T09:08:05;1.80;99.90
18335;DHT22;9293;49.524;10.964;2024-01-07T09:10:34;1.80;99.90
18335;DHT22;9293;49.524;10.964;2024-01-07T09:13:03;1.80;99.90
18335;DHT22;9293;49.524;10.964;2024-01-07T09:15:32;1.80;99.90
18335;DHT22;9293;49.524;10.964;2024-01-07T09:18:01;1.70;99.90
18335;DHT22;9293;49.524;10.964;2024-01-07T09:20:29;1.70;99.90
18335;DHT22;9293;49.524;10.964;2024-01-07T09:22:57;1.70;99.90
18335;DHT22;9293;49.524;10.964;2024-01-07T09:25:26;1.70;99.90
18335;DHT22;9293;49.524;10.964;2024-01-07T09:27:54;1.70;99.90
18335;DHT22;9293;49.524;10.964;2024-01-07T09:30:23;1.50;99.90
18335;DHT22;9293;49.524;10.964;2024-01-07T09:32:51;1.50;99.90
18335;DHT22;9293;49.524;10.964;2024-01-07T09:35:20;1.50;99.90
18335;DHT22;9293;49.524;10.964;2024-01-07T09:37:48;1.60;99.90
18335;DHT22;9293;49.524;10.964;2024-01-07T09:40:19;1.50;99.90
18335;DHT22;9293;49.524;10.964;2024-01-07T09:42:48;1.40;99.90
18335;DHT22;9293;49.524;10.964;2024-01-07T09:45:18;1.40;99.90
18335;DHT22;9293;49.524;10.964;2024-01-07T09:47:46;1.40;99.90
18335;DHT22;9293;49.524;10.964;2024-01-07T09:50:15;1.50;99.90
18335;DHT22;9293;49.524;10.964;2024-01-07T09:52:44;1.50;99.90
18335;DHT22;9293;49.524;10.964;2024-01-07T09:55:22;1.40;99.90
18335;DHT22;9293;49.524;10.964;2024-01-07T09:57:54;1.40;99.90
18335;DHT22;9293;49.524;10.964;2024-01-07T10:00:23;1.50;99.90
18335;DHT22;9293;49.524;10.964;2024-01-07T10:02:53;1.60;99.90
18335;DHT22;9293;49.524;10.964;2024-01-07T10:05:22;1.50;99.90
18335;DHT22;9293;49.524;10.964;2024-01-07T10:07:51;1.50;99.90
18335;DHT22;9293;49.524;10.964;2024-01-07T10:10:25;1.40;99.90
18335;DHT22;9293;49.524;10.964;2024-01-07T10:12:54;1.40;99.90
18335;DHT22;9293;49.524;10.964;2024-01-07T10:15:25;1.50;99.90
18335;DHT22;9293;49.524;10.964;2024-01-07T10:18:02;1.80;99.90
18335;DHT22;9293;49.524;10.964;2024-01-07T10:20:34;1.60;99.90
18335;DHT22;9293;49.524;10.964;2024-01-07T10:23:02;1.40;99.90
18335;DHT22;9293;49.524;10.964;2024-01-07T10:25:31;1.40;99.90
18335;DHT22;9293;49.524;10.964;2024-01-07T10:28:01;1.40;99.90
18335;DHT22;9293;49.524;10.964;2024-01-07T10:30:29;1.40;99.90
18335;DHT22;9293;49.524;10.964;2024-01-07T10:32:59;1.30;99.90
18335;DHT22;9293;49.524;10.964;2024-01-07T10:35:35;1.30;99.90
18335;DHT22;9293;49.524;10.964;2024-01-07T10:38:03;1.20;99.90
18335;DHT22;9293;49.524;10.964;2024-01-07T10:40:32;1.30;99.90
18335;DHT22;9293;49.524;10.964;2024-01-07T10:43:02;1.30;99.90
18335;DHT22;9293;49.524;10.964;2024-01-07T10:45:31;1.40;99.90
18335;DHT22;9293;49.524;10.964;2024-01-07T10:48:04;1.40;99.90
18335;DHT22;9293;49.524;10.964;2024-01-07T10:50:36;1.40;99.90
18335;DHT22;9293;49.524;10.964;2024-01-07T10:53:06;1.30;99.90
18335;DHT22;9293;49.524;10.964;2024-01-07T10:55:36;1.30;99.90
18335;DHT22;9293;49.524;10.964;2024-01-07T10:58:06;1.30;99.90
18335;DHT22;9293;49.524;10.964;2024-01-07T11:00:34;1.30;99.90
18335;DHT22;9293;49.524;10.964;2024-01-07T11:03:18;1.30;99.90
18335;DHT22;9293;49.524;10.964;2024-01-07T11:05:56;1.30;99.90
18335;DHT22;9293;49.524;10.964;2024-01-07T11:08:36;1.40;99.90
18335;DHT22;9293;49.524;10.964;2024-01-07T11:11:10;1.30;99.90
18335;DHT22;9293;49.524;10.964;2024-01-07T11:13:40;1.30;99.90
18335;DHT22;9293;49.524;10.964;2024-01-07T11:16:09;1.20;99.90
18335;DHT22;9293;49.524;10.964;2024-01-07T11:18:51;1.10;99.90
18335;DHT22;9293;49.524;10.964;2024-01-07T11:21:21;1.10;99.90
18335;DHT22;9293;49.524;10.964;2024-01-07T11:23:53;1.10;99.90
18335;DHT22;9293;49.524;10.964;2024-01-07T11:26:28;1.10;99.90
18335;DHT22;9293;49.524;10.964;2024-01-07T11:28:58;1.10;99.90
18335;DHT22;9293;49.524;10.964;2024-01-07T11:31:45;1.20;99.90
18335;DHT22;9293;49.524;10.964;2024-01-07T11:34:43;1.20;99.90
18335;DHT22;9293;49.524;10.964;2024-01-07T11:37:14;1.10;99.90
18335;DHT22;9293;49.524;10.964;2024-01-07T11:39:47;1.10;99.90
18335;DHT22;9293;49.524;10.964;2024-01-07T11:42:21;1.10;99.90
18335;DHT22;9293;49.524;10.964;2024-01-07T11:44:53;0.90;99.90
18335;DHT22;9293;49.524;10.964;2024-01-07T11:47:22;0.90;99.90
18335;DHT22;9293;49.524;10.964;2024-01-07T11:49:51;0.90;99.90
18335;DHT22;9293;49.524;10.964;2024-01-07T11:52:20;1.00;99.90
18335;DHT22;9293;49.524;10.964;2024-01-07T11:54:49;1.10;99.90
18335;DHT22;9293;49.524;10.964;2024-01-07T11:57:17;1.10;99.90
18335;DHT22;9293;49.524;10.964;2024-01-07T11:59:46;1.10;99.90
18335;DHT22;9293;49.524;10.964;2024-01-07T12:02:14;1.20;99.90
18335;DHT22;9293;49.524;10.964;2024-01-07T12:04:45;1.30;99.90
18335;DHT22;9293;49.524;10.964;2024-01-07T12:07:13;1.20;99.90
18335;DHT22;9293;49.524;10.964;2024-01-07T12:09:42;1.20;99.90
18335;DHT22;9293;49.524;10.964;2024-01-07T12:12:11;1.20;99.90
18335;DHT22;9293;49.524;10.964;2024-01-07T12:14:39;1.20;99.90
18335;DHT22;9293;49.524;10.964;2024-01-07T12:17:09;1.10;99.90
18335;DHT22;9293;49.524;10.964;2024-01-07T12:19:40;1.10;99.90
18335;DHT22;9293;49.524;10.964;2024-01-07T12:22:08;1.00;99.90
18335;DHT22;9293;49.524;10.964;2024-01-07T12:24:37;0.90;99.90
18335;DHT22;9293;49.524;10.964;2024-01-07T12:27:06;0.80;99.90
18335;DHT22;9293;49.524;10.964;2024-01-07T12:29:35;0.80;99.90
18335;DHT22;9293;49.524;10.964;2024-01-07T12:32:05;0.90;99.90
18335;DHT22;9293;49.524;10.964;2024-01-07T12:34:33;0.80;99.90
18335;DHT22;9293;49.524;10.964;2024-01-07T12:37:02;0.90;99.90
18335;DHT22;9293;49.524;10.964;2024-01-07T12:39:30;0.90;99.90
18335;DHT22;9293;49.524;10.964;2024-01-07T12:41:59;0.90;99.90
18335;DHT22;9293;49.524;10.964;2024-01-07T12:44:28;1.00;99.90
18335;DHT22;9293;49.524;10.964;2024-01-07T12:46:56;1.10;99.90
18335;DHT22;9293;49.524;10.964;2024-01-07T12:49:25;1.00;99.90
18335;DHT22;9293;49.524;10.964;2024-01-07T12:51:53;1.10;99.90
18335;DHT22;9293;49.524;10.964;2024-01-07T12:54:22;1.20;99.90
18335;DHT22;9293;49.524;10.964;2024-01-07T12:56:52;1.10;99.90
18335;DHT22;9293;49.524;10.964;2024-01-07T12:59:21;0.90;99.90
18335;DHT22;9293;49.524;10.964;2024-01-07T13:01:49;0.90;99.90
18335;DHT22;9293;49.524;10.964;2024-01-07T13:04:28;0.90;99.90
18335;DHT22;9293;49.524;10.964;2024-01-07T13:06:57;0.80;99.90
18335;DHT22;9293;49.524;10.964;2024-01-07T13:09:25;0.90;99.90
18335;DHT22;9293;49.524;10.964;2024-01-07T13:11:54;0.80;99.90
18335;DHT22;9293;49.524;10.964;2024-01-07T13:14:22;0.80;99.90
18335;DHT22;9293;49.524;10.964;2024-01-07T13:16:51;0.90;99.90
18335;DHT22;9293;49.524;10.964;2024-01-07T13:19:20;0.90;99.90
18335;DHT22;9293;49.524;10.964;2024-01-07T13:21:49;0.90;99.90
18335;DHT22;9293;49.524;10.964;2024-01-07T13:24:17;0.90;99.90
18335;DHT22;9293;49.524;10.964;2024-01-07T13:26:45;0.90;99.90
18335;DHT22;9293;49.524;10.964;2024-01-07T13:29:14;0.90;99.90
18335;DHT22;9293;49.524;10.964;2024-01-07T13:31:42;0.80;99.90
18335;DHT22;9293;49.524;10.964;2024-01-07T13:34:11;0.80;99.90
18335;DHT22;9293;49.524;10.964;2024-01-07T13:36:42;0.80;99.90
18335;DHT22;9293;49.524;10.964;2024-01-07T13:39:11;0.70;99.90
18335;DHT22;9293;49.524;10.964;2024-01-07T13:41:40;0.70;99.90
18335;DHT22;9293;49.524;10.964;2024-01-07T13:44:08;0.70;99.90
18335;DHT22;9293;49.524;10.964;2024-01-07T13:46:46;1.00;99.90
18335;DHT22;9293;49.524;10.964;2024-01-07T13:49:20;1.10;99.90
18335;DHT22;9293;49.524;10.964;2024-01-07T13:51:48;1.20;99.90
18335;DHT22;9293;49.524;10.964;2024-01-07T13:54:17;1.10;99.90
18335;DHT22;9293;49.524;10.964;2024-01-07T13:56:45;1.00;99.90
18335;DHT22;9293;49.524;10.964;2024-01-07T13:59:13;0.90;99.90
18335;DHT22;9293;49.524;10.964;2024-01-07T14:01:42;0.80;99.90
18335;DHT22;9293;49.524;10.964;2024-01-07T14:04:11;0.80;99.90
18335;DHT22;9293;49.524;10.964;2024-01-07T14:06:41;0.70;99.90
18335;DHT22;9293;49.524;10.964;2024-01-07T14:09:13;0.60;99.90
18335;DHT22;9293;49.524;10.964;2024-01-07T14:11:41;0.50;99.90
18335;DHT22;9293;49.524;10.964;2024-01-07T14:14:10;0.50;99.90
18335;DHT22;9293;49.524;10.964;2024-01-07T14:16:42;0.50;99.90
18335;DHT22;9293;49.524;10.964;2024-01-07T14:19:12;0.60;99.90
18335;DHT22;9293;49.524;10.964;2024-01-07T14:21:43;0.60;99.90
18335;DHT22;9293;49.524;10.964;2024-01-07T14:24:11;0.60;99.90
18335;DHT22;9293;49.524;10.964;2024-01-07T14:26:39;0.50;99.90
18335;DHT22;9293;49.524;10.964;2024-01-07T14:29:08;0.60;99.90
18335;DHT22;9293;49.524;10.964;2024-01-07T14:31:44;0.50;99.90
18335;DHT22;9293;49.524;10.964;2024-01-07T14:34:14;0.60;99.90
18335;DHT22;9293;49.524;10.964;2024-01-07T14:36:42;0.50;99.90
18335;DHT22;9293;49.524;10.964;2024-01-07T14:39:12;0.50;99.90
18335;DHT22;9293;49.524;10.964;2024-01-07T14:41:42;0.50;99.90
18335;DHT22;9293;49.524;10.964;2024-01-07T14:44:11;0.50;99.90
18335;DHT22;9293;49.524;10.964;2024-01-07T14:46:42;0.40;99.90
18335;DHT22;9293;49.524;10.964;2024-01-07T14:49:10;0.50;99.90
18335;DHT22;9293;49.524;10.964;2024-01-07T14:51:39;0.40;99.90
18335;DHT22;9293;49.524;10.964;2024-01-07T14:54:07;0.40;99.90
18335;DHT22;9293;49.524;10.964;2024-01-07T14:56:36;0.40;99.90
18335;DHT22;9293;49.524;10.964;2024-01-07T14:59:05;0.40;99.90
18335;DHT22;9293;49.524;10.964;2024-01-07T15:01:34;0.40;99.90
18335;DHT22;9293;49.524;10.964;2024-01-07T15:04:02;0.40;99.90
18335;DHT22;9293;49.524;10.964;2024-01-07T15:06:39;0.40;99.90
18335;DHT22;9293;49.524;10.964;2024-01-07T15:09:09;0.40;99.90
18335;DHT22;9293;49.524;10.964;2024-01-07T15:12:11;0.30;99.90
18335;DHT22;9293;49.524;10.964;2024-01-07T15:14:39;0.30;99.90
18335;DHT22;9293;49.524;10.964;2024-01-07T15:17:08;0.20;99.90
18335;DHT22;9293;49.524;10.964;2024-01-07T15:19:37;0.20;99.90
18335;DHT22;9293;49.524;10.964;2024-01-07T15:22:05;0.20;99.90
18335;DHT22;9293;49.524;10.964;2024-01-07T15:24:34;0.20;99.90
18335;DHT22;9293;49.524;10.964;2024-01-07T15:27:02;0.20;99.90
18335;DHT22;9293;49.524;10.964;2024-01-07T15:29:31;0.20;99.90
18335;DHT22;9293;49.524;10.964;2024-01-07T15:31:59;0.10;99.90
18335;DHT22;9293;49.524;10.964;2024-01-07T15:34:27;0.20;99.90
18335;DHT22;9293;49.524;10.964;2024-01-07T15:36:56;0.20;99.90
18335;DHT22;9293;49.524;10.964;2024-01-07T15:39:24;0.20;99.90
18335;DHT22;9293;49.524;10.964;2024-01-07T15:41:52;0.20;99.90
18335;DHT22;9293;49.524;10.964;2024-01-07T15:44:23;0.20;99.90
18335;DHT22;9293;49.524;10.964;2024-01-07T15:46:51;0.20;99.90
18335;DHT22;9293;49.524;10.964;2024-01-07T15:49:19;0.30;99.90
18335;DHT22;9293;49.524;10.964;2024-01-07T15:51:48;0.20;99.90
18335;DHT22;9293;49.524;10.964;2024-01-07T15:54:16;0.20;99.90
18335;DHT22;9293;49.524;10.964;2024-01-07T15:56:44;0.10;99.90
18335;DHT22;9293;49.524;10.964;2024-01-07T15:59:13;0.00;99.90